This is the latest recevied weather packets stored in our database for station/object IW1AXR-3. If no packets are shown the sender has not sent any weather packets the latest 10 day(s).
| Time | Temp. | Humidity | Pressure | Rain* | Wind** | Luminosity | Snow |
|---|---|---|---|---|---|---|---|
| 1777514604 | 11.67° C | - | 1018 hPa | - | - | - | - |
| 1777513992 | 11.67° C | 99% | 1017.8 hPa | - | - | - | - |
| 1777510320 | 13.33° C | 90% | 1017.3 hPa | - | - | - | - |
| 1777508455 | 12.22° C | 91% | 1017.1 hPa | - | - | - | - |
| 1777506008 | 12.22° C | 88% | 1017 hPa | - | - | - | - |
| 1777502940 | 12.78° C | 87% | 1016.8 hPa | - | - | - | - |
| 1777501721 | 12.22° C | 90% | 1016.6 hPa | - | - | - | - |
| 1777501113 | 12.22° C | 87% | 1016.6 hPa | - | - | - | - |
| 1777499889 | 13.33° C | 84% | 1016.5 hPa | - | - | - | - |
| 1777499282 | 12.78° C | 89% | 1016.5 hPa | - | - | - | - |
| 1777498063 | 12.22° C | 87% | 1016.3 hPa | - | - | - | - |
| 1777496237 | 12.78° C | 86% | 1016.1 hPa | - | - | - | - |
| 1777494412 | 12.78° C | 88% | 1015.9 hPa | - | - | - | - |
| 1777490756 | 12.78° C | 90% | 1015.4 hPa | - | - | - | - |
| 1777490150 | 12.22° C | 91% | 1015.2 hPa | - | - | - | - |
| 1777488939 | 13.33° C | 87% | 1015 hPa | - | - | - | - |
| 1777488334 | 12.78° C | 86% | 1014.9 hPa | - | - | - | - |
| 1777485894 | 13.89° C | 80% | 1014.4 hPa | - | - | - | - |
| 1777485281 | 14.44° C | 76% | 1014.4 hPa | - | - | - | - |
| 1777484065 | 15.56° C | 70% | 1014.2 hPa | - | - | - | - |
| 1777483452 | 16.11° C | 67% | 1014.2 hPa | - | - | - | - |
| 1777482840 | 16.67° C | 66% | 1014.2 hPa | - | - | - | - |
| 1777481007 | 18.33° C | 63% | 1014.1 hPa | - | - | - | - |
| 1777480385 | 17.78° C | 64% | 1014.1 hPa | - | - | - | - |
| 1777479781 | 17.78° C | 63% | 1014.1 hPa | - | - | - | - |
* Rain since midnight (hover to see other rain measurements)
** Current wind speed in m/s (hover to see current wind gust speed)